Time;durP1;ratioP1;P1;durP2;ratioP2;P2;SDS_P1;SDS_P2;PMS_P1;PMS_P2;Temp;Humidity;BMP_temperature;BMP_pressure;BME280_temperature;BME280_humidity;BME280_pressure;Samples;Min_cycle;Max_cycle;Signal;HPM_P1;HPM_P2
2022/05/10 00:00:55;;;;;;;8.15;7.40;;;17.20;99.90;;;;;;2072696;28;20024;-69
2022/05/10 00:01:55;;;;;;;8.70;6.65;;;17.20;99.90;;;;;;2075487;28;20022;-69
2022/05/10 00:02:59;;;;;;;8.82;7.25;;;17.20;99.90;;;;;;2072010;28;20101;-69
2022/05/10 00:04:02;;;;;;;8.05;6.65;;;17.20;99.90;;;;;;2086823;28;20079;-69
2022/05/10 00:05:04;;;;;;;7.25;6.55;;;17.10;99.90;;;;;;2086041;28;20025;-69
2022/05/10 00:06:06;;;;;;;9.25;6.50;;;17.10;99.90;;;;;;2070465;28;20038;-69
2022/05/10 00:07:07;;;;;;;8.50;6.47;;;17.10;99.90;;;;;;2072883;28;20026;-69
2022/05/10 00:08:11;;;;;;;7.32;6.65;;;17.10;99.90;;;;;;2074823;28;20115;-69
2022/05/10 00:09:13;;;;;;;8.40;7.57;;;17.10;99.90;;;;;;2072399;28;20026;-69
2022/05/10 00:10:14;;;;;;;9.18;6.70;;;17.10;99.90;;;;;;2072870;28;20113;-69
2022/05/10 00:11:14;;;;;;;7.15;6.45;;;17.10;99.90;;;;;;2072581;28;20052;-69
2022/05/10 00:12:15;;;;;;;7.40;6.70;;;17.10;99.90;;;;;;2074212;28;20030;-69
2022/05/10 00:13:16;;;;;;;10.35;7.00;;;17.00;99.90;;;;;;2074623;28;20029;-69
2022/05/10 00:14:17;;;;;;;8.80;6.72;;;17.10;99.90;;;;;;2071695;28;20036;-69
2022/05/10 00:15:18;;;;;;;7.45;6.75;;;17.10;99.90;;;;;;2071516;28;20593;-69
2022/05/10 00:16:19;;;;;;;7.75;6.95;;;17.00;99.90;;;;;;2072707;28;20034;-69
2022/05/10 00:17:36;;;;;;;7.30;6.30;;;17.00;99.90;;;;;;2072260;28;20030;-69
2022/05/10 00:18:37;;;;;;;9.48;7.28;;;17.00;99.90;;;;;;2072701;28;20021;-69
2022/05/10 00:19:37;;;;;;;7.20;6.45;;;17.00;99.90;;;;;;2072155;28;20028;-69
2022/05/10 00:20:38;;;;;;;7.22;6.53;;;17.00;99.90;;;;;;2070986;28;20026;-69
2022/05/10 00:21:39;;;;;;;7.25;6.30;;;17.00;99.90;;;;;;2074705;28;20438;-69
2022/05/10 00:22:40;;;;;;;7.13;6.43;;;17.00;99.90;;;;;;2078140;28;20030;-69
2022/05/10 00:23:41;;;;;;;7.25;6.28;;;17.00;99.90;;;;;;2073666;28;20018;-69
2022/05/10 00:24:41;;;;;;;7.65;6.30;;;17.00;99.90;;;;;;2072376;28;20637;-69
2022/05/10 00:25:42;;;;;;;6.57;5.97;;;17.00;99.90;;;;;;2071839;28;20018;-69
2022/05/10 00:26:43;;;;;;;7.90;7.10;;;17.00;99.90;;;;;;2071629;28;20097;-69
2022/05/10 00:27:43;;;;;;;6.97;6.25;;;16.90;99.90;;;;;;2073272;28;20028;-69
2022/05/10 00:28:44;;;;;;;6.50;5.93;;;16.90;99.90;;;;;;2069171;28;20022;-69
2022/05/10 00:29:45;;;;;;;7.53;6.82;;;16.90;99.90;;;;;;2070244;28;20397;-69
2022/05/10 00:30:46;;;;;;;7.13;6.20;;;16.90;99.90;;;;;;2069746;28;20493;-69
2022/05/10 00:31:46;;;;;;;7.32;6.60;;;16.90;99.90;;;;;;2074330;28;20033;-69
2022/05/10 00:32:47;;;;;;;9.43;6.90;;;16.90;99.90;;;;;;2071712;28;20022;-69
2022/05/10 00:33:48;;;;;;;6.85;6.25;;;16.90;99.90;;;;;;2074846;28;20022;-69
2022/05/10 00:34:48;;;;;;;7.20;6.50;;;16.90;99.90;;;;;;2072845;28;20040;-69
2022/05/10 00:35:49;;;;;;;6.45;5.85;;;16.80;99.90;;;;;;2070159;28;20033;-69
2022/05/10 00:36:50;;;;;;;7.05;6.32;;;16.80;99.90;;;;;;2072925;28;20470;-69
2022/05/10 00:37:53;;;;;;;8.68;6.82;;;16.80;99.90;;;;;;2072389;28;20022;-69
2022/05/10 00:38:54;;;;;;;6.88;6.15;;;16.80;99.90;;;;;;2072596;28;20111;-69
2022/05/10 00:39:54;;;;;;;7.53;6.82;;;16.80;99.90;;;;;;2074626;28;20026;-69
2022/05/10 00:40:55;;;;;;;6.60;6.03;;;16.80;99.90;;;;;;2074694;28;20033;-69
2022/05/10 00:42:05;;;;;;;7.18;6.20;;;16.80;99.90;;;;;;2070210;28;20092;-69
2022/05/10 00:43:32;;;;;;;6.60;6.00;;;16.70;99.90;;;;;;2069532;28;20053;-69
2022/05/10 00:44:49;;;;;;;6.18;5.63;;;16.70;99.90;;;;;;2068450;28;20030;-69
2022/05/10 00:45:58;;;;;;;6.90;6.10;;;16.70;99.90;;;;;;2070210;28;20032;-69
2022/05/10 00:47:12;;;;;;;8.07;6.30;;;16.70;99.90;;;;;;2074125;28;20060;-69
2022/05/10 00:48:18;;;;;;;7.90;6.00;;;16.60;99.90;;;;;;2070864;28;20652;-69
2022/05/10 00:49:22;;;;;;;6.80;6.20;;;16.60;99.90;;;;;;2073201;28;20038;-69
2022/05/10 00:50:35;;;;;;;6.47;5.93;;;16.70;99.90;;;;;;2071959;28;20122;-69
2022/05/10 00:51:44;;;;;;;6.38;5.80;;;16.60;99.90;;;;;;2071177;28;20616;-69
2022/05/10 00:53:07;;;;;;;6.38;5.88;;;16.60;99.90;;;;;;2066719;28;20037;-69
2022/05/10 00:54:38;;;;;;;6.97;6.38;;;16.60;99.90;;;;;;2071298;28;20608;-69
2022/05/10 00:55:56;;;;;;;6.50;5.88;;;16.50;99.90;;;;;;2070472;28;20037;-69
2022/05/10 00:57:14;;;;;;;8.05;6.00;;;16.50;99.90;;;;;;2073370;28;20037;-69
2022/05/10 00:58:39;;;;;;;7.90;5.72;;;16.50;99.90;;;;;;2072693;28;20117;-69
2022/05/10 01:00:02;;;;;;;6.78;6.13;;;16.50;99.90;;;;;;2070895;28;20049;-69
2022/05/10 01:01:03;;;;;;;6.30;5.80;;;16.40;99.90;;;;;;2069813;28;20025;-69
2022/05/10 01:02:39;;;;;;;6.85;6.15;;;16.40;99.90;;;;;;2071664;28;20045;-69
2022/05/10 01:03:48;;;;;;;6.25;5.32;;;16.40;99.90;;;;;;2086442;28;20041;-69
2022/05/10 01:04:54;;;;;;;7.15;5.85;;;16.40;99.90;;;;;;2082271;28;20021;-69
2022/05/10 01:06:14;;;;;;;7.13;6.45;;;16.40;99.90;;;;;;2071099;28;20042;-69
2022/05/10 01:07:22;;;;;;;8.00;6.05;;;16.40;99.90;;;;;;2072521;28;20026;-69
2022/05/10 01:08:52;;;;;;;6.90;6.20;;;16.40;99.90;;;;;;2072775;28;20068;-69
2022/05/10 01:09:58;;;;;;;5.47;4.97;;;16.30;99.90;;;;;;2062523;28;20777;-69
2022/05/10 01:11:25;;;;;;;5.75;5.25;;;16.30;99.90;;;;;;2070880;28;20501;-69
2022/05/10 01:12:36;;;;;;;5.90;5.40;;;16.30;99.90;;;;;;2070408;28;20573;-69
2022/05/10 01:13:44;;;;;;;7.65;5.53;;;16.30;99.90;;;;;;2070785;28;20057;-69
2022/05/10 01:14:54;;;;;;;6.75;6.20;;;16.20;99.90;;;;;;2070655;28;20025;-69
2022/05/10 01:16:16;;;;;;;6.07;5.57;;;16.20;99.90;;;;;;2070495;28;20037;-69
2022/05/10 01:17:16;;;;;;;8.85;6.30;;;16.20;99.90;;;;;;2071507;28;20087;-69
2022/05/10 01:18:21;;;;;;;6.32;5.72;;;16.20;99.90;;;;;;2075270;28;20068;-69
2022/05/10 01:19:22;;;;;;;6.30;5.72;;;16.20;99.90;;;;;;2070309;28;20026;-69
2022/05/10 01:20:41;;;;;;;6.10;5.60;;;16.20;99.90;;;;;;2071360;28;20030;-69
2022/05/10 01:21:49;;;;;;;6.50;5.55;;;16.20;99.90;;;;;;2073140;28;20026;-69
2022/05/10 01:22:56;;;;;;;6.93;6.22;;;16.20;99.90;;;;;;2070083;28;20032;-69
2022/05/10 01:24:19;;;;;;;6.40;5.55;;;16.20;99.90;;;;;;2073647;28;20026;-69
2022/05/10 01:25:42;;;;;;;5.47;4.97;;;16.10;99.90;;;;;;2072348;28;20026;-69
2022/05/10 01:26:54;;;;;;;5.55;5.07;;;16.10;99.90;;;;;;2073557;28;20423;-69
2022/05/10 01:28:17;;;;;;;6.38;5.68;;;16.10;99.90;;;;;;2075093;28;20172;-69
2022/05/10 01:29:44;;;;;;;8.10;6.13;;;16.10;99.90;;;;;;2072544;28;20738;-69
2022/05/10 01:30:44;;;;;;;6.07;5.50;;;16.10;99.90;;;;;;2071187;28;20034;-69
2022/05/10 01:33:29;;;;;;;5.97;5.20;;;16.10;99.90;;;;;;2071840;28;20022;-69
2022/05/10 01:33:31;;;;;;;8.25;5.60;;;16.10;99.90;;;;;;2063624;28;20029;-69
2022/05/10 01:34:32;;;;;;;6.28;5.68;;;16.00;99.90;;;;;;2086797;28;20033;-69
2022/05/10 01:35:38;;;;;;;6.68;5.57;;;16.00;99.90;;;;;;2086540;28;20033;-69
2022/05/10 01:36:44;;;;;;;6.28;5.72;;;16.00;99.90;;;;;;2072609;28;20022;-69
2022/05/10 01:37:51;;;;;;;6.35;5.75;;;16.00;99.90;;;;;;2070160;28;20363;-69
2022/05/10 01:39:10;;;;;;;7.22;5.75;;;16.00;99.90;;;;;;2069813;28;20039;-69
2022/05/10 01:40:17;;;;;;;7.40;5.57;;;16.00;99.90;;;;;;2074176;28;20024;-69
2022/05/10 01:41:21;;;;;;;5.97;5.47;;;15.90;99.90;;;;;;2073177;28;20023;-69
2022/05/10 01:42:30;;;;;;;6.57;5.85;;;15.90;99.90;;;;;;2070197;28;20026;-69
2022/05/10 01:43:43;;;;;;;6.40;5.70;;;15.90;99.90;;;;;;2069960;28;20028;-69
2022/05/10 01:44:53;;;;;;;6.75;5.88;;;16.00;99.90;;;;;;2071951;28;20527;-69
2022/05/10 01:45:57;;;;;;;7.65;6.03;;;15.90;99.90;;;;;;2070526;28;20018;-69
2022/05/10 01:47:18;;;;;;;6.30;5.70;;;15.90;99.90;;;;;;2073541;28;20398;-69
2022/05/10 01:48:21;;;;;;;6.28;5.68;;;15.90;99.90;;;;;;2073518;28;20040;-70
2022/05/10 01:49:37;;;;;;;6.63;6.13;;;15.80;99.90;;;;;;2070336;28;20056;-69
2022/05/10 01:50:54;;;;;;;6.78;5.88;;;15.90;99.90;;;;;;2070790;28;20029;-69
2022/05/10 01:52:04;;;;;;;8.00;5.63;;;15.80;99.90;;;;;;2083296;28;20084;-69
2022/05/10 01:53:17;;;;;;;6.03;5.43;;;15.80;99.90;;;;;;2083542;28;20036;-69
2022/05/10 01:54:39;;;;;;;6.63;6.03;;;15.80;99.90;;;;;;2071870;28;20022;-69
2022/05/10 01:55:52;;;;;;;5.93;5.35;;;15.80;99.90;;;;;;2082336;28;20400;-69
2022/05/10 01:56:52;;;;;;;6.10;5.50;;;15.80;99.90;;;;;;2082191;28;20138;-69
2022/05/10 01:57:58;;;;;;;6.20;5.60;;;15.80;99.90;;;;;;2085532;28;20020;-69
2022/05/10 01:58:59;;;;;;;6.28;5.68;;;15.80;99.90;;;;;;2084740;28;20021;-69
2022/05/10 02:00:09;;;;;;;6.85;6.15;;;15.80;99.90;;;;;;2070184;28;20017;-69
2022/05/10 02:01:29;;;;;;;9.40;5.97;;;15.80;99.90;;;;;;2070605;28;20034;-69
2022/05/10 02:02:32;;;;;;;7.20;6.38;;;15.70;99.90;;;;;;2069551;28;20113;-69
2022/05/10 02:03:44;;;;;;;6.55;5.93;;;15.70;99.90;;;;;;2070029;28;20072;-69
2022/05/10 02:04:48;;;;;;;7.78;5.15;;;15.70;99.90;;;;;;2071339;28;20421;-69
2022/05/10 02:05:57;;;;;;;6.65;5.25;;;15.70;99.90;;;;;;2070039;28;20084;-69
2022/05/10 02:07:04;;;;;;;7.03;5.72;;;15.70;99.90;;;;;;2070630;28;20393;-69
2022/05/10 02:08:18;;;;;;;7.18;6.13;;;15.70;99.90;;;;;;2069685;28;20029;-69
2022/05/10 02:09:27;;;;;;;6.13;5.55;;;15.70;99.90;;;;;;2072187;28;20025;-69
2022/05/10 02:10:36;;;;;;;6.88;6.00;;;15.70;99.90;;;;;;2070557;28;20040;-69
2022/05/10 02:11:41;;;;;;;6.10;5.50;;;15.70;99.90;;;;;;2069939;28;20030;-69
2022/05/10 02:12:53;;;;;;;6.20;5.70;;;15.60;99.90;;;;;;2070997;28;20061;-69
2022/05/10 02:14:08;;;;;;;5.97;5.38;;;15.70;99.90;;;;;;2072975;28;20107;-69
2022/05/10 02:15:25;;;;;;;6.40;5.57;;;15.70;99.90;;;;;;2070873;28;20041;-69
2022/05/10 02:16:49;;;;;;;6.47;5.88;;;15.60;99.90;;;;;;2073152;28;20026;-69
2022/05/10 02:17:54;;;;;;;6.00;5.45;;;15.60;99.90;;;;;;2070717;28;20166;-69
2022/05/10 02:19:06;;;;;;;6.88;5.20;;;15.60;99.90;;;;;;2070594;28;20030;-69
2022/05/10 02:20:11;;;;;;;5.63;5.05;;;15.60;99.90;;;;;;2068306;28;20056;-69
2022/05/10 02:21:27;;;;;;;6.70;5.80;;;15.60;99.90;;;;;;2070883;28;20034;-69
2022/05/10 02:22:43;;;;;;;6.13;5.55;;;15.60;99.90;;;;;;2069960;28;20060;-69
2022/05/10 02:23:50;;;;;;;5.75;5.25;;;15.60;99.90;;;;;;2070954;28;20053;-69
2022/05/10 02:24:55;;;;;;;6.63;5.70;;;15.60;99.90;;;;;;2070996;28;20029;-69
2022/05/10 02:26:02;;;;;;;8.23;5.85;;;15.60;99.90;;;;;;2068438;28;20172;-69
2022/05/10 02:27:32;;;;;;;6.85;5.70;;;15.60;99.90;;;;;;2070790;28;20477;-69
2022/05/10 02:28:48;;;;;;;5.50;5.00;;;15.60;99.90;;;;;;2071593;28;20128;-69
2022/05/10 02:29:58;;;;;;;6.07;5.20;;;15.60;99.90;;;;;;2068577;28;20078;-69
2022/05/10 02:31:03;;;;;;;;;;;15.60;99.90;;;;;;2072379;28;20022;-69
2022/05/10 02:33:33;;;;;;;5.38;4.95;;;15.50;99.90;;;;;;2069729;28;20113;-69
2022/05/10 02:34:37;;;;;;;6.10;5.40;;;15.50;99.90;;;;;;2073353;28;20025;-69
2022/05/10 02:35:48;;;;;;;7.03;5.25;;;15.50;99.90;;;;;;2068067;28;20045;-69
2022/05/10 02:36:49;;;;;;;6.13;5.53;;;15.50;99.90;;;;;;2072955;28;20022;-69
2022/05/10 02:37:50;;;;;;;5.95;5.25;;;15.50;99.90;;;;;;2073749;28;20040;-69
2022/05/10 02:38:50;;;;;;;4.95;4.55;;;15.50;99.90;;;;;;2071687;28;20454;-69
2022/05/10 02:39:51;;;;;;;5.50;5.05;;;15.50;99.90;;;;;;2073696;28;20386;-69
2022/05/10 02:40:54;;;;;;;5.30;4.90;;;15.60;99.90;;;;;;2072182;28;20061;-69
2022/05/10 02:41:55;;;;;;;5.85;5.35;;;15.60;99.90;;;;;;2069261;28;20033;-69
2022/05/10 02:42:55;;;;;;;5.60;5.10;;;15.50;99.90;;;;;;2071003;28;20537;-69
2022/05/10 02:43:59;;;;;;;5.63;4.85;;;15.50;99.90;;;;;;2071493;28;20052;-69
2022/05/10 02:45:01;;;;;;;5.50;5.07;;;15.60;99.90;;;;;;2070910;28;20029;-72
2022/05/10 02:46:02;;;;;;;6.35;5.40;;;15.60;99.90;;;;;;2069543;28;20060;-69
2022/05/10 02:47:05;;;;;;;6.30;5.70;;;15.60;99.90;;;;;;2070074;28;20069;-69
2022/05/10 02:48:13;;;;;;;8.20;5.82;;;15.60;99.90;;;;;;2072639;28;20535;-69
2022/05/10 02:49:14;;;;;;;6.00;5.40;;;15.60;99.90;;;;;;2071229;28;20482;-69
2022/05/10 02:50:23;;;;;;;5.90;5.28;;;15.50;99.90;;;;;;2069442;28;20405;-69
2022/05/10 02:51:24;;;;;;;5.72;5.32;;;15.50;99.90;;;;;;2069713;28;20026;-69
2022/05/10 02:52:24;;;;;;;6.38;5.60;;;15.50;99.90;;;;;;2073012;28;20037;-69
2022/05/10 02:53:26;;;;;;;6.22;5.63;;;15.50;99.90;;;;;;2071195;28;20057;-69
2022/05/10 02:54:26;;;;;;;6.60;5.85;;;15.50;99.90;;;;;;2073492;28;20037;-69
2022/05/10 02:55:40;;;;;;;6.30;5.70;;;15.50;99.90;;;;;;2070536;28;20032;-69
2022/05/10 02:56:41;;;;;;;5.93;5.35;;;15.50;99.90;;;;;;2069437;28;20026;-69
2022/05/10 02:57:46;;;;;;;5.60;5.10;;;15.50;99.90;;;;;;2072509;28;20529;-69
2022/05/10 02:58:57;;;;;;;6.10;5.60;;;15.50;99.90;;;;;;2068592;28;20028;-69
2022/05/10 03:00:01;;;;;;;5.75;5.25;;;15.50;99.90;;;;;;2071774;28;20474;-69
2022/05/10 03:01:17;;;;;;;6.15;5.07;;;15.40;99.90;;;;;;2071837;28;20052;-69
2022/05/10 03:02:24;;;;;;;5.90;5.38;;;15.40;99.90;;;;;;2074735;28;20037;-69
2022/05/10 03:03:27;;;;;;;5.60;5.10;;;15.40;99.90;;;;;;2068866;28;20033;-69
2022/05/10 03:04:35;;;;;;;6.38;5.78;;;15.40;99.90;;;;;;2070130;28;20615;-69
2022/05/10 03:05:36;;;;;;;7.40;6.03;;;15.40;99.90;;;;;;2071133;28;20029;-69
2022/05/10 03:06:39;;;;;;;6.82;5.55;;;15.40;99.90;;;;;;2072774;28;20026;-69
2022/05/10 03:07:40;;;;;;;6.47;5.88;;;15.40;99.90;;;;;;2085852;28;20115;-69
2022/05/10 03:08:40;;;;;;;8.82;6.28;;;15.40;99.90;;;;;;2086275;28;20138;-69
2022/05/10 03:09:41;;;;;;;5.43;5.03;;;15.40;99.90;;;;;;2070137;28;20033;-69
2022/05/10 03:10:41;;;;;;;6.03;5.35;;;15.40;99.90;;;;;;2070744;28;20025;-69
2022/05/10 03:11:42;;;;;;;6.97;6.30;;;15.40;99.90;;;;;;2070625;28;20026;-69
2022/05/10 03:12:43;;;;;;;5.32;4.93;;;15.40;99.90;;;;;;2071573;28;20037;-70
2022/05/10 03:13:45;;;;;;;6.50;5.60;;;15.40;99.90;;;;;;2073789;28;20075;-69
2022/05/10 03:14:46;;;;;;;6.32;5.82;;;15.40;99.90;;;;;;2069808;28;20116;-69
2022/05/10 03:15:47;;;;;;;6.13;5.53;;;15.40;99.90;;;;;;2072261;28;20037;-69
2022/05/10 03:16:47;;;;;;;7.55;5.65;;;15.40;99.90;;;;;;2073441;28;20052;-69
2022/05/10 03:17:48;;;;;;;6.07;5.47;;;15.40;99.90;;;;;;2086332;28;20051;-69
2022/05/10 03:18:49;;;;;;;5.45;4.95;;;15.40;99.90;;;;;;2085601;28;20017;-69
2022/05/10 03:19:50;;;;;;;6.63;5.97;;;15.40;99.90;;;;;;2072500;28;20152;-69
2022/05/10 03:20:50;;;;;;;6.65;6.00;;;15.40;99.90;;;;;;2069834;28;20038;-69
2022/05/10 03:21:51;;;;;;;22.40;5.25;;;15.40;99.90;;;;;;2069535;28;20585;-69
2022/05/10 03:22:51;;;;;;;7.32;6.63;;;15.40;99.90;;;;;;2067309;28;20367;-69
2022/05/10 03:23:52;;;;;;;6.55;5.88;;;15.40;99.90;;;;;;2070767;28;20384;-69
2022/05/10 03:24:53;;;;;;;7.22;6.05;;;15.40;99.90;;;;;;2071367;28;20022;-69
2022/05/10 03:25:57;;;;;;;8.98;6.05;;;15.40;99.90;;;;;;2071945;28;20401;-69
2022/05/10 03:26:59;;;;;;;6.60;6.03;;;15.30;99.90;;;;;;2070340;28;20156;-69
2022/05/10 03:28:00;;;;;;;7.35;6.40;;;15.40;99.90;;;;;;2070743;28;20576;-69
2022/05/10 03:29:02;;;;;;;6.60;6.00;;;15.30;99.90;;;;;;2073348;28;20536;-69
2022/05/10 03:30:04;;;;;;;7.43;6.72;;;15.30;99.90;;;;;;2069519;28;20030;-69
2022/05/10 03:31:07;;;;;;;10.57;7.20;;;15.30;99.90;;;;;;2070160;28;20034;-69
2022/05/10 03:32:08;;;;;;;7.75;7.05;;;15.30;99.90;;;;;;2075119;28;20100;-69
2022/05/10 03:33:09;;;;;;;8.40;6.45;;;15.30;99.90;;;;;;2070030;28;20069;-69
2022/05/10 03:35:29;;;;;;;6.57;6.05;;;15.30;99.90;;;;;;2070938;28;20397;-69
2022/05/10 03:36:30;;;;;;;7.25;6.57;;;15.30;99.90;;;;;;2070073;28;20030;-69
2022/05/10 03:37:31;;;;;;;7.93;6.28;;;15.20;99.90;;;;;;2071545;28;20080;-69
2022/05/10 03:38:32;;;;;;;7.72;7.03;;;15.30;99.90;;;;;;2071159;28;20555;-69
2022/05/10 03:39:33;;;;;;;6.57;5.72;;;15.30;99.90;;;;;;2068866;28;20022;-69
2022/05/10 03:40:34;;;;;;;6.60;6.00;;;15.20;99.90;;;;;;2070392;28;20030;-69
2022/05/10 03:41:34;;;;;;;6.88;6.28;;;15.30;99.90;;;;;;2071742;28;20045;-69
2022/05/10 03:42:51;;;;;;;7.55;6.63;;;15.20;99.90;;;;;;2069334;28;20476;-69
2022/05/10 03:43:51;;;;;;;6.75;6.15;;;15.20;99.90;;;;;;2070583;28;20021;-69
2022/05/10 03:44:52;;;;;;;6.68;6.13;;;15.20;99.90;;;;;;2069162;28;20036;-69
2022/05/10 03:45:53;;;;;;;7.28;5.95;;;15.20;99.90;;;;;;2070665;28;20367;-69
2022/05/10 03:46:54;;;;;;;10.05;6.70;;;15.20;99.90;;;;;;2070633;28;20165;-69
2022/05/10 03:47:55;;;;;;;7.05;6.35;;;15.20;99.90;;;;;;2071511;28;20124;-69
2022/05/10 03:48:56;;;;;;;7.10;6.40;;;15.20;99.90;;;;;;2071958;28;20750;-69
2022/05/10 03:49:58;;;;;;;8.73;6.82;;;15.20;99.90;;;;;;2072262;28;20029;-69
2022/05/10 03:50:58;;;;;;;6.93;6.32;;;15.20;99.90;;;;;;2069926;28;20075;-69
2022/05/10 03:51:59;;;;;;;7.90;7.10;;;15.20;99.90;;;;;;2072289;28;20079;-69
2022/05/10 03:53:00;;;;;;;7.55;6.57;;;15.20;99.90;;;;;;2070216;28;20018;-69
2022/05/10 03:54:00;;;;;;;7.07;6.47;;;15.20;99.90;;;;;;2071231;28;20049;-69
2022/05/10 03:55:03;;;;;;;9.80;6.85;;;15.20;99.90;;;;;;2070506;28;20609;-69
2022/05/10 03:56:04;;;;;;;7.18;6.47;;;15.10;99.90;;;;;;2072972;28;20039;-69
2022/05/10 03:57:05;;;;;;;7.10;6.45;;;15.20;99.90;;;;;;2072412;28;20505;-69
2022/05/10 03:58:05;;;;;;;7.43;6.72;;;15.20;99.90;;;;;;2069540;28;20405;-69
2022/05/10 03:59:06;;;;;;;8.23;7.25;;;15.20;99.90;;;;;;2069855;28;20076;-69
2022/05/10 04:00:10;;;;;;;7.85;7.13;;;15.20;99.90;;;;;;2070223;28;20702;-70
2022/05/10 04:01:11;;;;;;;7.25;6.55;;;15.20;99.90;;;;;;2068754;28;20018;-69
2022/05/10 04:02:13;;;;;;;7.15;6.55;;;15.20;99.90;;;;;;2069693;28;20018;-69
2022/05/10 04:03:14;;;;;;;8.27;6.88;;;15.10;99.90;;;;;;2070084;28;20030;-69
2022/05/10 04:04:15;;;;;;;7.10;6.45;;;15.10;99.90;;;;;;2072032;28;20024;-69
2022/05/10 04:05:16;;;;;;;7.32;6.45;;;15.20;99.90;;;;;;2068219;28;20030;-69
2022/05/10 04:06:18;;;;;;;7.53;6.80;;;15.20;99.90;;;;;;2070404;28;20045;-69
2022/05/10 04:07:18;;;;;;;11.73;6.63;;;15.10;99.90;;;;;;2072651;28;20026;-69
2022/05/10 04:08:19;;;;;;;9.65;7.05;;;15.10;99.90;;;;;;2072271;28;20033;-69
2022/05/10 04:09:19;;;;;;;7.13;6.50;;;15.20;99.90;;;;;;2071540;28;20030;-69
2022/05/10 04:10:22;;;;;;;9.02;6.70;;;15.10;99.90;;;;;;2069292;28;20552;-69
2022/05/10 04:11:22;;;;;;;8.93;6.95;;;15.20;99.90;;;;;;2069927;28;20038;-69
2022/05/10 04:12:23;;;;;;;7.30;6.70;;;15.10;99.90;;;;;;2070879;28;20543;-69
2022/05/10 04:13:24;;;;;;;8.88;6.63;;;15.20;99.90;;;;;;2068639;28;20036;-69
2022/05/10 04:14:25;;;;;;;9.02;7.00;;;15.20;99.90;;;;;;2069174;28;20029;-69
2022/05/10 04:15:25;;;;;;;10.65;7.10;;;15.20;99.90;;;;;;2069948;28;20034;-69
2022/05/10 04:16:26;;;;;;;7.25;6.65;;;15.20;99.90;;;;;;2071757;28;20080;-69
2022/05/10 04:17:26;;;;;;;6.95;6.35;;;15.20;99.90;;;;;;2069016;28;20397;-69
2022/05/10 04:18:28;;;;;;;8.45;7.00;;;15.20;99.90;;;;;;2068903;28;20054;-69
2022/05/10 04:19:28;;;;;;;7.32;6.63;;;15.20;99.90;;;;;;2070439;28;20029;-70
2022/05/10 04:20:29;;;;;;;9.18;7.07;;;15.20;99.90;;;;;;2070945;28;20061;-69
2022/05/10 04:21:29;;;;;;;7.18;6.43;;;15.20;99.90;;;;;;2071571;28;20037;-69
2022/05/10 04:22:30;;;;;;;7.60;6.97;;;15.20;99.90;;;;;;2067989;28;20014;-69
2022/05/10 04:23:31;;;;;;;8.75;6.80;;;15.20;99.90;;;;;;2070583;28;20117;-69
2022/05/10 04:24:31;;;;;;;8.63;6.70;;;15.30;99.90;;;;;;2069755;28;20029;-69
2022/05/10 04:25:32;;;;;;;7.43;6.55;;;15.20;99.90;;;;;;2070464;28;20029;-69
2022/05/10 04:26:32;;;;;;;6.85;6.25;;;15.30;99.90;;;;;;2068314;28;20026;-69
2022/05/10 04:27:33;;;;;;;8.85;7.07;;;15.30;99.90;;;;;;2071432;28;20096;-69
2022/05/10 04:28:35;;;;;;;8.57;6.80;;;15.30;99.90;;;;;;2071993;28;20681;-69
2022/05/10 04:29:36;;;;;;;7.22;6.53;;;15.30;99.90;;;;;;2070489;28;20034;-69
2022/05/10 04:30:36;;;;;;;7.57;6.88;;;15.30;99.90;;;;;;2072231;28;20022;-69
2022/05/10 04:31:37;;;;;;;7.53;6.82;;;15.30;99.90;;;;;;2069115;28;20437;-69
2022/05/10 04:32:38;;;;;;;7.57;6.80;;;15.30;99.90;;;;;;2071252;28;20036;-69
2022/05/10 04:33:39;;;;;;;6.97;6.38;;;15.30;99.90;;;;;;2070928;28;20020;-69
2022/05/10 04:34:40;;;;;;;8.43;7.05;;;15.30;99.90;;;;;;2071449;28;20026;-69
2022/05/10 04:35:40;;;;;;;9.60;7.10;;;15.30;99.90;;;;;;2072507;28;20045;-69
2022/05/10 04:36:41;;;;;;;7.63;6.82;;;15.40;99.90;;;;;;2073097;28;20061;-69
2022/05/10 04:37:41;;;;;;;8.15;7.00;;;15.40;99.90;;;;;;2069557;28;20575;-69
2022/05/10 04:38:44;;;;;;;8.40;7.55;;;15.40;99.90;;;;;;2084787;28;20032;-69
2022/05/10 04:42:23;;;;;;;8.02;7.22;;;15.40;99.90;;;;;;2070493;28;20669;-69
2022/05/10 04:43:23;;;;;;;9.68;6.65;;;15.40;99.90;;;;;;2072070;28;20022;-69
2022/05/10 04:44:24;;;;;;;9.30;7.03;;;15.40;99.90;;;;;;2071281;28;20022;-69
2022/05/10 04:45:24;;;;;;;7.90;7.00;;;15.40;99.90;;;;;;2070210;28;20029;-69
2022/05/10 04:46:27;;;;;;;12.43;7.03;;;15.50;99.90;;;;;;2070535;28;20101;-69
2022/05/10 04:47:27;;;;;;;8.20;7.50;;;15.40;99.90;;;;;;2069576;28;20444;-69
2022/05/10 04:48:28;;;;;;;7.93;7.30;;;15.50;99.90;;;;;;2069339;28;20132;-69
2022/05/10 04:49:29;;;;;;;7.60;6.85;;;15.50;99.90;;;;;;2069590;28;20157;-69
2022/05/10 04:50:29;;;;;;;7.10;6.50;;;15.50;99.90;;;;;;2069059;28;20397;-69
2022/05/10 04:51:30;;;;;;;7.30;6.70;;;15.50;99.90;;;;;;2070896;28;20398;-69
2022/05/10 04:52:31;;;;;;;8.07;7.10;;;15.50;99.90;;;;;;2071454;28;20046;-70
2022/05/10 04:53:33;;;;;;;7.70;6.65;;;15.50;99.90;;;;;;2069500;28;20029;-69
2022/05/10 04:54:33;;;;;;;7.97;7.20;;;15.50;99.90;;;;;;2072143;28;20030;-69
2022/05/10 04:55:34;;;;;;;8.45;7.57;;;15.60;99.90;;;;;;2070204;28;20649;-70
2022/05/10 04:56:34;;;;;;;8.60;7.80;;;15.50;99.90;;;;;;2071322;28;20072;-69
2022/05/10 04:57:36;;;;;;;11.73;7.40;;;15.50;99.90;;;;;;2068990;28;20033;-69
2022/05/10 04:58:36;;;;;;;7.95;7.15;;;15.60;99.90;;;;;;2072927;28;20118;-69
2022/05/10 04:59:37;;;;;;;7.60;6.90;;;15.60;99.90;;;;;;2070767;28;20072;-69
2022/05/10 05:00:37;;;;;;;8.02;7.22;;;15.60;99.90;;;;;;2070851;28;20101;-69
2022/05/10 05:01:38;;;;;;;7.88;7.10;;;15.60;99.90;;;;;;2071343;28;20025;-69
2022/05/10 05:02:38;;;;;;;7.78;7.07;;;15.60;99.90;;;;;;2069599;28;20058;-69
2022/05/10 05:03:43;;;;;;;9.80;6.93;;;15.70;99.90;;;;;;2068103;28;20533;-69
2022/05/10 05:04:44;;;;;;;7.63;6.93;;;15.70;99.90;;;;;;2084593;28;20024;-69
2022/05/10 05:05:44;;;;;;;7.50;6.68;;;15.70;99.90;;;;;;2082765;28;20075;-69
2022/05/10 05:06:45;;;;;;;9.13;7.10;;;15.70;99.90;;;;;;2068323;28;20026;-69
2022/05/10 05:07:46;;;;;;;7.28;6.65;;;15.70;99.90;;;;;;2068364;28;20025;-69
2022/05/10 05:08:46;;;;;;;10.63;7.03;;;15.70;99.90;;;;;;2070406;28;20025;-69
2022/05/10 05:09:46;;;;;;;10.10;7.13;;;15.70;99.90;;;;;;2069871;28;20033;-69
2022/05/10 05:10:47;;;;;;;7.95;7.28;;;15.70;99.90;;;;;;2070049;28;20049;-69
2022/05/10 05:11:48;;;;;;;8.57;7.68;;;15.70;99.90;;;;;;2069965;28;20014;-69
2022/05/10 05:12:48;;;;;;;7.75;6.95;;;15.70;99.90;;;;;;2068140;28;20076;-69
2022/05/10 05:13:49;;;;;;;8.95;7.88;;;15.80;99.90;;;;;;2068957;28;20026;-69
2022/05/10 05:14:49;;;;;;;7.55;6.80;;;15.70;99.90;;;;;;2072247;28;20030;-69
2022/05/10 05:15:50;;;;;;;7.90;7.13;;;15.80;99.90;;;;;;2068906;28;20519;-69
2022/05/10 05:16:54;;;;;;;9.90;7.53;;;15.80;99.90;;;;;;2084197;28;20531;-69
2022/05/10 05:17:54;;;;;;;8.52;7.75;;;15.80;99.90;;;;;;2083114;28;20087;-69
2022/05/10 05:18:55;;;;;;;8.05;7.25;;;15.80;99.90;;;;;;2070932;28;20029;-69
2022/05/10 05:19:55;;;;;;;8.15;7.43;;;15.80;99.90;;;;;;2070938;28;20033;-69
2022/05/10 05:20:55;;;;;;;7.75;6.97;;;15.80;99.90;;;;;;2069621;28;20109;-69
2022/05/10 05:21:56;;;;;;;8.02;6.97;;;15.90;99.90;;;;;;2064197;28;20035;-69
2022/05/10 05:22:57;;;;;;;9.30;6.93;;;15.90;99.90;;;;;;2067170;28;20065;-69
2022/05/10 05:23:57;;;;;;;7.65;6.93;;;15.90;99.90;;;;;;2068523;28;20065;-69
2022/05/10 05:24:58;;;;;;;7.43;6.55;;;16.00;99.90;;;;;;2067747;28;20488;-69
2022/05/10 05:25:58;;;;;;;9.07;7.05;;;16.00;99.90;;;;;;2066680;28;20022;-69
2022/05/10 05:26:59;;;;;;;9.55;7.82;;;16.00;99.90;;;;;;2068931;28;20030;-69
2022/05/10 05:27:59;;;;;;;8.70;7.45;;;16.00;99.90;;;;;;2065513;28;20596;-69
2022/05/10 05:29:00;;;;;;;7.72;7.05;;;16.00;99.90;;;;;;2069892;28;20042;-70
2022/05/10 05:30:00;;;;;;;8.32;7.43;;;16.10;99.90;;;;;;2071509;28;20065;-69
2022/05/10 05:31:02;;;;;;;8.23;7.15;;;16.10;99.90;;;;;;2072356;28;20021;-69
2022/05/10 05:32:09;;;;;;;8.60;6.65;;;16.10;99.90;;;;;;2070156;28;20084;-69
2022/05/10 05:33:10;;;;;;;9.90;7.18;;;16.10;99.90;;;;;;2068980;28;20033;-69
2022/05/10 05:34:10;;;;;;;8.98;6.97;;;16.10;99.90;;;;;;2070189;28;20436;-69
2022/05/10 05:35:13;;;;;;;10.15;7.40;;;16.20;99.90;;;;;;2067763;28;20026;-69
2022/05/10 05:36:14;;;;;;;9.60;7.80;;;16.20;99.90;;;;;;2068097;28;20040;-69
2022/05/10 05:37:32;;;;;;;7.63;6.93;;;16.20;99.90;;;;;;2068785;28;20129;-69
2022/05/10 05:38:33;;;;;;;10.95;7.30;;;16.20;99.90;;;;;;2066874;28;20022;-69
2022/05/10 05:39:34;;;;;;;10.65;7.28;;;16.20;99.90;;;;;;2068441;28;20105;-69
2022/05/10 05:40:36;;;;;;;9.82;7.95;;;16.30;99.90;;;;;;2069779;28;20486;-69
2022/05/10 05:41:37;;;;;;;7.90;7.20;;;16.30;99.90;;;;;;2069473;28;20109;-69
2022/05/10 05:42:37;;;;;;;9.18;6.95;;;16.30;99.90;;;;;;2067683;28;20577;-69